Date,TemperatureHighF,TemperatureAvgF,TemperatureLowF,DewpointHighF,DewpointAvgF,DewpointLowF,HumidityHigh,HumidityAvg,HumidityLow,PressureMaxIn,PressureMinIn,WindSpeedMaxMPH,WindSpeedAvgMPH,GustSpeedMaxMPH,PrecipitationSumIn
2013-1-1,48,44,40,45,32,17,92,64,38,30.09,29.91,7,0,7,0.24
2013-1-2,49,45,40,45,31,18,95,63,35,30.15,29.88,6,1,6,0.16
2013-1-3,43,38,29,22,18,14,75,45,34,30.24,30.09,5,0,5,0.00
2013-1-4,51,35,25,25,16,7,76,49,28,30.29,30.18,10,1,10,0.04
2013-1-5,52,38,25,20,13,7,55,37,28,30.35,30.18,5,0,5,0.00
2013-1-6,56,44,36,29,21,14,65,41,28,30.21,30.03,6,0,6,0.00
2013-1-7,52,39,30,21,17,13,62,41,28,30.38,30.15,6,1,6,0.00
2013-1-8,52,40,26,28,21,14,70,48,31,30.41,30.32,6,0,6,0.00
2013-1-9,61,48,36,39,33,25,80,58,36,30.41,30.32,8,0,8,0.00
2013-1-10,60,51,44,45,30,18,87,49,26,30.47,30.35,10,1,10,0.00
2013-1-11,49,44,41,44,37,18,96,80,29,30.38,30.15,8,1,8,0.12
2013-1-12,63,52,45,60,50,44,98,93,75,30.15,30.06,4,0,4,0.04
2013-1-13,71,59,49,65,49,44,98,74,39,30.12,30.03,13,1,13,0.00
2013-1-14,63,60,54,62,57,52,97,91,75,30.15,30.03,9,0,9,0.63
2013-1-15,57,44,41,53,42,39,96,94,91,30.18,30.06,10,2,10,0.51
2013-1-16,49,44,40,48,43,39,98,97,95,30.06,29.91,6,0,6,0.43
2013-1-17,50,43,34,49,42,31,98,95,89,30.15,29.88,13,2,13,2.05
2013-1-18,48,36,30,33,23,14,95,65,29,30.47,30.12,8,0,8,0.31
2013-1-19,54,37,25,30,20,14,82,54,27,30.44,30.12,9,1,9,0.00
2013-1-20,63,43,29,30,20,13,74,43,25,30.12,29.97,13,1,13,0.00
2013-1-21,60,42,28,29,18,9,70,42,26,30.06,29.88,16,2,16,0.00
2013-1-22,39,32,25,11,5,0,33,32,31,30.21,29.94,13,1,13,0.00
2013-1-23,44,30,21,14,4,-3,38,33,29,30.29,30.00,15,1,15,0.00
2013-1-24,38,30,24,13,6,-1,48,36,31,30.44,29.91,13,1,13,0.00
2013-1-25,26,24,21,17,4,-3,67,44,33,30.44,30.06,8,1,8,0.00
2013-1-26,40,31,23,27,18,15,78,60,37,30.32,30.03,5,0,5,0.04
2013-1-27,42,33,22,16,13,8,62,43,32,30.53,30.32,6,1,6,0.00
2013-1-28,48,41,34,37,24,14,74,51,38,30.41,30.18,10,0,10,0.04
2013-1-29,70,54,43,54,40,35,96,63,30,30.21,30.00,8,1,8,0.00
2013-1-30,71,65,54,58,50,40,84,59,33,30.03,29.41,23,5,23,0.87
2013-1-31,56,42,34,51,18,7,88,38,29,29.97,29.44,19,4,19,0.24
2013-2-1,39,32,24,13,6,0,36,33,31,30.32,29.82,17,2,17,0.00
2013-2-2,40,31,19,15,6,-2,46,34,30,30.32,29.97,11,1,11,0.00
2013-2-3,50,39,31,24,16,8,66,41,28,30.03,29.82,17,2,17,0.00
2013-2-4,47,38,28,16,11,5,40,33,29,30.09,29.94,8,1,8,0.00
2013-2-5,62,44,34,26,17,11,51,34,26,29.94,29.85,14,1,14,0.00
2013-2-6,61,44,30,32,20,10,70,41,26,30.21,29.94,10,1,10,0.00
2013-2-7,43,39,36,32,21,10,84,52,30,30.27,30.00,10,3,10,0.67
2013-2-8,58,44,36,38,27,11,85,57,27,30.06,29.82,17,2,17,0.12
2013-2-9,55,42,30,22,13,7,41,32,27,30.29,30.03,10,1,10,0.00
2013-2-10,54,40,28,31,15,8,67,37,27,30.41,30.15,9,1,9,0.08
2013-2-11,56,48,41,54,44,26,96,87,69,30.15,29.91,5,0,5,0.08
2013-2-12,60,49,38,49,24,17,93,41,26,30.06,29.91,10,1,10,0.00
2013-2-13,49,44,37,43,36,20,89,75,41,29.94,29.62,9,0,9,0.35
2013-2-14,53,41,30,33,22,16,81,50,28,30.00,29.79,10,1,10,0.00
2013-2-15,61,45,29,34,23,18,79,47,26,30.06,29.88,10,1,10,0.00
2013-2-16,42,37,29,23,14,4,58,40,32,29.97,29.79,10,1,10,0.00
2013-2-17,39,30,24,11,4,-1,35,32,30,30.18,29.91,15,2,15,0.00
2013-2-18,55,37,19,22,10,0,46,34,27,30.32,30.12,10,2,10,0.00
2013-2-19,49,41,35,40,21,10,81,48,30,30.15,29.82,10,1,10,0.08
2013-2-20,54,40,27,21,12,3,38,31,27,30.09,29.94,11,1,11,0.00
2013-2-21,57,42,25,23,13,1,38,30,27,30.21,30.06,8,1,8,0.00
2013-2-22,46,35,33,31,26,12,86,72,30,30.27,30.06,8,1,8,0.31
2013-2-23,47,40,35,39,35,31,92,82,58,30.12,29.79,7,0,7,0.20
2013-2-24,63,50,38,45,29,16,96,53,25,30.00,29.79,13,1,13,0.00
2013-2-25,47,38,34,16,11,8,34,31,29,30.15,30.00,9,1,9,0.00
2013-2-26,39,36,33,38,28,8,95,76,32,30.09,29.56,13,2,13,0.75
2013-2-27,57,46,37,44,29,19,97,59,27,29.76,29.59,11,2,11,0.04
2013-2-28,48,42,36,28,16,12,54,36,29,29.85,29.67,13,2,13,0.00
2013-3-1,45,41,37,16,14,10,41,33,30,29.88,29.79,9,1,9,0.00
2013-3-2,45,38,34,15,12,7,41,33,30,29.88,29.79,9,0,9,0.00
2013-3-3,43,35,29,13,8,3,33,31,30,29.94,29.85,13,2,13,0.00
2013-3-4,54,38,26,21,10,1,33,31,27,30.06,29.94,8,1,8,0.00
2013-3-5,49,41,35,47,23,8,96,52,29,30.00,29.56,6,1,6,0.43
2013-3-6,46,40,35,40,26,19,97,60,42,30.06,29.56,19,4,19,0.08
2013-3-7,50,40,30,27,24,19,66,52,39,30.21,30.03,10,2,10,0.00
2013-3-8,55,40,26,26,23,20,83,54,29,30.27,30.15,13,1,13,0.00
2013-3-9,61,44,28,31,26,22,78,53,27,30.29,30.18,8,1,8,0.00
2013-3-10,66,49,33,36,31,27,80,52,30,30.27,30.15,9,1,9,0.00
2013-3-11,65,54,40,52,37,21,84,54,33,30.15,29.85,13,2,13,0.00
2013-3-12,64,57,45,58,45,30,98,69,34,29.94,29.70,14,1,14,0.43
2013-3-13,52,44,34,33,24,14,78,47,31,30.12,29.94,17,2,17,0.00
2013-3-14,52,39,29,20,16,12,50,39,27,30.21,30.09,14,2,14,0.00
2013-3-15,62,46,28,34,26,18,74,49,33,30.15,29.85,15,2,15,0.00
2013-3-16,78,59,42,51,42,33,76,57,31,29.85,29.65,13,2,13,0.00
2013-3-17,60,49,38,51,43,35,95,81,67,30.12,29.82,13,3,13,0.00
2013-3-18,38,37,36,37,37,36,98,98,94,30.12,29.82,10,0,10,0.12
2013-3-19,63,48,35,47,29,12,98,60,21,30.00,29.79,13,2,13,0.00
2013-3-20,56,46,34,20,15,10,44,29,22,30.06,29.73,13,2,13,0.00
2013-3-21,46,36,29,24,13,8,50,39,30,29.94,29.73,13,2,13,0.00
2013-3-22,51,36,22,22,14,8,58,40,26,30.03,29.91,11,1,11,0.00
2013-3-23,57,44,34,31,26,20,69,50,31,30.00,29.85,5,0,6,0.00
2013-3-24,43,38,34,37,34,30,96,83,65,29.88,29.53,11,2,11,0.51
2013-3-25,45,38,33,37,27,19,98,68,40,29.79,29.53,18,3,18,0.04
2013-3-26,47,39,31,26,23,19,71,53,41,30.09,29.76,13,1,13,0.00
2013-3-27,49,38,29,25,21,17,78,52,35,30.18,30.06,10,2,15,0.00
2013-3-28,54,40,26,26,22,18,79,52,30,30.21,30.12,15,1,15,0.00
2013-3-29,60,45,28,29,24,21,76,47,25,30.27,30.09,11,1,11,0.00
2013-3-30,65,51,36,35,30,27,72,47,26,30.18,30.00,10,1,10,0.00
2013-3-31,65,54,48,55,49,34,98,83,58,30.00,29.73,10,0,10,0.28
2013-4-1,68,57,45,53,43,33,98,66,34,29.91,29.76,11,2,14,0.00
2013-4-2,60,50,38,33,25,18,69,40,22,30.09,29.91,13,1,13,0.00
2013-4-3,59,48,33,24,20,16,61,35,22,30.21,30.06,8,1,8,0.00
2013-4-4,49,39,35,34,23,13,95,58,27,30.27,29.91,10,2,10,0.67
2013-4-5,64,49,35,46,37,32,98,70,33,29.97,29.82,5,0,5,0.08
2013-4-6,65,52,35,39,33,30,89,53,29,30.18,29.97,9,1,9,0.00
2013-4-7,70,58,43,44,38,30,72,50,34,30.18,30.03,14,2,14,0.00
2013-4-8,77,63,48,54,48,42,88,60,37,30.09,29.97,11,2,11,0.00
2013-4-9,83,69,52,54,51,47,89,55,32,30.12,30.00,10,1,10,0.00
2013-4-10,85,73,58,58,54,52,84,55,34,30.03,29.88,10,1,10,0.00
2013-4-11,80,71,62,65,57,54,87,64,41,29.91,29.70,13,2,13,0.00
2013-4-12,80,69,60,66,56,38,98,66,33,29.73,29.56,14,2,14,1.50
2013-4-13,74,61,45,44,37,30,75,44,21,29.97,29.73,11,1,11,0.04
2013-4-14,78,63,45,49,39,34,84,47,21,30.00,29.91,10,1,10,0.00
2013-4-15,63,58,54,57,55,49,98,87,61,30.12,29.94,4,0,4,0.20
2013-4-16,77,66,56,60,57,54,98,75,48,30.21,30.09,0,0,0,0.00
2013-4-17,79,68,59,60,57,54,96,70,43,30.15,30.06,0,0,0,0.00
2013-4-18,78,70,63,62,58,52,92,67,42,30.09,29.94,0,0,0,0.00
2013-4-19,76,67,56,66,61,44,97,81,64,29.94,29.67,12,0,12,0.20
2013-4-20,62,53,43,45,32,27,70,47,29,30.18,29.79,0,0,0,0.00
2013-4-21,59,50,40,37,33,27,84,53,38,30.38,30.15,0,0,0,0.00
2013-4-22,61,51,39,36,31,25,77,50,26,30.35,30.15,0,0,0,0.00
2013-4-23,68,57,48,51,43,35,78,60,45,30.18,30.00,0,0,0,0.00
2013-4-24,72,62,50,55,52,49,98,73,50,30.03,29.88,10,1,10,0.00
2013-4-25,68,57,46,54,35,25,72,47,20,30.21,29.94,6,0,7,0.00
2013-4-26,68,55,40,44,37,32,85,54,27,30.32,30.21,6,0,6,0.00
2013-4-27,66,59,53,53,48,43,87,68,51,30.27,30.15,6,0,6,0.00
2013-4-28,56,55,53,55,54,52,98,96,87,30.18,29.94,3,0,3,0.87
2013-4-29,67,58,53,60,56,52,98,92,69,29.97,29.88,0,0,0,0.16
2013-4-30,68,61,56,58,56,54,98,86,66,30.12,29.91,4,0,4,0.00
2013-5-1,65,59,55,56,54,52,97,84,67,30.24,30.09,6,0,6,0.00
2013-5-2,60,58,55,54,52,47,93,81,72,30.24,30.15,6,0,6,0.00
2013-5-3,65,58,51,54,48,38,98,73,49,30.18,30.06,8,0,8,0.00
2013-5-4,60,53,48,51,44,37,91,71,52,30.09,29.97,10,1,10,0.00
2013-5-5,55,52,49,54,47,40,98,83,61,30.00,29.85,10,1,10,0.04
2013-5-6,63,58,55,62,57,54,98,98,95,29.88,29.73,6,0,6,0.43
2013-5-7,67,58,52,61,54,47,98,89,51,29.85,29.73,8,0,8,0.20
2013-5-8,68,58,52,59,55,52,98,91,66,29.91,29.82,6,0,6,0.12
2013-5-9,78,64,50,61,54,50,98,75,40,30.00,29.88,7,0,7,0.12
2013-5-10,80,68,54,61,58,54,98,73,44,30.00,29.85,8,0,8,0.04
2013-5-11,76,69,62,64,60,56,98,74,52,29.88,29.73,7,0,7,0.08
2013-5-12,67,60,50,61,45,32,98,64,30,29.97,29.76,14,1,14,0.08
2013-5-13,64,53,40,43,34,28,88,54,27,30.06,29.94,9,0,9,0.00
2013-5-14,69,55,38,45,39,34,90,57,36,30.15,29.97,7,0,7,0.00
2013-5-15,86,68,51,66,55,44,87,64,43,29.97,29.85,6,0,6,0.00
2013-5-16,80,70,58,63,60,55,98,73,45,29.94,29.82,7,0,7,0.00
2013-5-17,82,70,58,62,59,56,98,72,42,30.03,29.91,5,0,5,0.00
2013-5-18,70,66,63,68,64,61,98,95,86,30.12,30.00,3,0,3,0.12
2013-5-19,74,68,65,70,66,63,98,95,82,30.12,30.03,5,0,5,0.04
2013-5-20,77,69,65,72,67,63,98,93,71,30.12,30.00,6,0,6,0.16
2013-5-21,83,73,64,78,68,64,98,86,56,30.06,29.94,8,0,8,0.04
2013-5-22,82,72,65,67,65,59,98,81,56,30.03,29.91,8,0,8,0.08
2013-5-23,75,68,62,69,64,59,98,90,63,29.97,29.85,10,0,10,0.20
2013-5-24,66,61,54,62,47,32,98,65,30,30.21,29.85,13,1,13,0.00
2013-5-25,73,59,45,42,36,29,85,45,22,30.27,30.15,9,0,9,0.00
2013-5-26,72,61,53,51,45,39,85,58,36,30.27,30.15,5,0,5,0.00
2013-5-27,78,66,53,55,52,49,94,64,40,30.27,30.15,6,0,6,0.00
2013-5-28,81,72,62,67,60,55,96,69,43,30.24,30.15,7,0,7,0.00
2013-5-29,82,73,62,65,60,55,97,68,41,30.24,30.15,6,0,6,0.00
2013-5-30,82,72,62,68,62,57,98,75,44,30.27,30.18,7,0,7,0.00
2013-5-31,83,73,64,73,65,60,98,79,50,30.24,30.12,8,0,8,0.00
2013-6-1,84,75,68,70,63,57,97,69,42,30.12,30.03,6,0,6,0.00
2013-6-2,78,72,66,70,64,60,98,77,64,30.06,29.94,6,0,6,0.91
2013-6-3,79,70,66,72,68,62,98,93,62,30.00,29.85,4,0,4,0.51
2013-6-4,72,67,63,67,64,60,98,90,68,30.12,29.97,4,0,4,0.04
2013-6-5,71,65,62,67,64,62,98,96,87,30.15,30.03,0,0,0,0.31
2013-6-6,72,69,65,71,68,64,98,98,97,30.03,29.82,0,0,0,0.94
2013-6-7,75,69,67,75,69,66,98,98,98,29.85,29.65,4,0,4,0.35
2013-6-8,79,71,63,68,64,57,98,82,49,30.09,29.85,4,0,4,0.43
2013-6-9,82,73,65,74,67,59,98,84,48,30.15,30.06,8,0,8,0.04
2013-6-10,77,72,68,74,70,66,98,94,83,30.09,29.88,11,0,11,0.71
2013-6-11,82,73,67,71,63,54,98,74,42,30.00,29.91,8,0,8,0.04
2013-6-12,88,76,64,71,67,63,98,77,55,30.00,29.88,5,0,5,0.04
2013-6-13,89,76,66,74,68,56,98,79,41,29.91,29.67,8,0,8,0.35
2013-6-14,78,68,58,65,55,46,98,68,34,30.06,29.79,9,0,9,0.04
2013-6-15,80,69,57,64,56,50,96,68,37,30.15,30.06,6,0,6,0.04
2013-6-16,83,73,65,68,63,60,91,71,47,30.12,30.03,4,0,6,0.04
2013-6-17,80,73,69,74,69,62,98,87,68,30.06,29.97,6,0,6,0.31
2013-6-18,78,71,68,74,69,63,98,94,73,29.97,29.82,6,0,6,0.83
2013-6-19,77,72,63,72,63,60,98,77,55,30.15,29.94,3,0,3,0.04
2013-6-20,77,70,66,66,63,59,95,80,53,30.27,30.15,4,0,4,0.04
2013-6-21,79,70,63,63,58,52,93,67,43,30.27,30.21,4,0,4,0.04
2013-6-22,79,70,61,66,62,57,93,77,54,30.24,30.15,4,0,4,0.04
2013-6-23,85,75,68,72,65,57,97,73,39,30.21,30.12,6,0,6,0.04
2013-6-24,84,76,70,72,67,62,94,75,48,30.21,30.12,6,0,6,0.04
2013-6-25,86,77,70,72,67,60,95,74,42,30.15,30.00,5,0,5,0.04
2013-6-26,86,74,68,70,65,54,95,77,41,30.06,29.94,10,0,10,0.55
2013-6-27,83,75,67,74,69,66,98,84,57,29.97,29.76,9,0,9,0.04
2013-6-28,88,77,69,74,65,56,97,71,37,29.79,29.62,11,0,11,0.20
2013-6-29,83,75,69,73,66,58,97,75,43,29.73,29.65,6,0,6,0.04
2013-6-30,82,75,69,70,66,61,91,75,50,29.88,29.73,6,0,6,0.04
2013-7-1,78,73,68,71,67,63,98,82,61,30.00,29.85,7,0,7,0.04
2013-7-2,78,72,71,70,68,65,96,85,70,30.18,30.00,7,0,7,0.08
2013-7-3,78,73,70,76,72,69,98,95,84,30.24,30.12,5,0,5,1.65
2013-7-4,83,75,71,76,70,63,97,84,57,30.27,30.18,6,0,6,0.51
2013-7-5,81,75,72,73,70,66,93,85,64,30.27,30.21,5,0,5,0.12
2013-7-6,82,75,71,73,68,62,98,82,52,30.27,30.12,8,0,10,0.31
2013-7-7,81,74,70,75,70,63,98,86,66,30.21,30.09,6,0,6,1.57
2013-7-8,83,75,69,74,67,58,98,79,44,30.21,30.12,5,0,5,1.34
2013-7-9,84,77,71,76,69,62,97,77,48,30.18,30.09,4,0,4,0.04
2013-7-10,84,76,71,70,67,63,90,75,50,30.12,29.97,5,0,5,0.04
2013-7-11,80,73,70,71,68,64,92,84,66,30.00,29.91,5,0,5,1.46
2013-7-12,75,71,68,69,66,62,98,84,65,30.06,29.91,6,0,6,0.04
2013-7-13,77,73,68,70,66,62,91,79,65,30.18,30.06,4,0,4,0.00
2013-7-14,82,77,72,73,68,63,98,76,56,30.32,30.15,5,0,5,0.04
2013-7-15,84,81,72,67,64,58,83,58,42,30.35,30.27,4,0,4,0.00
2013-7-16,87,77,68,73,66,59,94,72,42,30.32,30.24,8,0,8,0.00
2013-7-17,87,77,72,74,69,60,93,77,46,30.27,30.15,7,0,7,0.00
2013-7-18,88,79,70,74,68,59,94,72,38,30.18,30.09,0,0,0,0.00
2013-7-19,87,79,73,73,68,62,92,70,45,30.12,30.00,6,0,6,0.00
2013-7-20,83,76,71,72,69,59,90,80,53,30.06,29.94,6,0,6,0.04
2013-7-21,84,75,71,73,69,60,96,84,50,30.03,29.94,7,0,7,0.04
2013-7-22,84,75,71,75,69,59,98,84,47,30.00,29.85,7,0,7,0.00
2013-7-23,85,77,69,70,64,57,92,69,39,29.88,29.79,8,0,8,0.00
2013-7-24,85,76,68,72,64,58,91,68,42,29.91,29.79,6,0,6,0.00
2013-7-25,77,71,66,67,60,55,90,70,47,30.06,29.88,5,0,5,0.71
2013-7-26,80,73,68,65,60,54,88,67,43,30.15,30.03,4,0,4,0.71
2013-7-27,72,70,68,68,66,59,97,87,63,30.06,29.97,4,0,4,2.83
2013-7-28,80,73,68,74,66,58,98,81,48,30.03,29.94,4,0,4,2.83
2013-7-29,79,72,66,68,59,48,94,68,33,30.21,30.03,6,0,6,2.83
2013-7-30,79,71,64,64,56,49,80,61,37,30.24,30.18,4,0,4,2.83
2013-7-31,76,72,69,69,66,63,90,81,66,30.18,30.03,0,0,0,2.83
2013-8-1,81,74,70,71,65,58,93,75,46,30.03,29.88,6,0,6,2.83
2013-8-2,81,73,66,69,61,50,92,69,35,30.06,29.94,4,0,4,2.83
2013-8-3,85,75,68,72,64,57,89,71,39,30.06,29.97,6,0,6,2.83
2013-8-4,81,74,69,69,58,47,89,60,30,30.06,29.94,10,0,10,2.83
2013-8-5,78,71,65,61,57,53,75,60,44,30.12,30.00,4,0,4,2.83
2013-8-6,75,70,66,65,63,60,89,77,64,30.09,30.00,5,0,5,2.83
2013-8-7,79,73,69,66,63,57,82,71,49,30.12,30.06,6,0,6,2.83
2013-8-8,81,74,70,71,66,62,90,78,53,30.09,30.03,6,0,6,2.83
2013-8-9,86,76,71,72,66,58,89,72,42,30.09,30.03,5,0,5,2.83
2013-8-10,85,73,70,72,66,55,88,78,44,30.15,30.06,5,0,5,2.83
2013-8-11,85,76,71,74,65,58,87,72,41,30.15,30.06,6,0,6,2.83
2013-8-12,85,77,70,71,64,54,88,67,36,30.09,29.97,6,0,6,2.83
2013-8-13,82,73,69,71,66,60,88,79,49,29.97,29.85,10,0,10,2.83
2013-8-14,73,69,63,65,54,43,84,62,34,30.12,29.88,4,0,4,2.83
2013-8-15,70,64,59,54,47,40,72,55,34,30.18,30.09,4,0,4,2.83
2013-8-16,69,62,56,54,49,45,78,64,43,30.18,30.12,3,0,3,2.83
2013-8-17,65,62,59,59,54,50,84,76,68,30.21,30.15,4,0,4,2.83
2013-8-18,72,67,64,65,61,58,89,81,62,30.24,30.12,0,0,0,0.12
2013-8-19,73,68,66,68,63,60,88,83,77,30.21,30.09,0,0,0,0.39
2013-8-20,78,71,66,68,62,58,88,76,51,30.21,30.12,0,0,0,0.08
2013-8-21,81,73,69,71,64,58,86,74,47,30.24,30.15,6,0,6,0.08
2013-8-22,83,74,68,67,62,53,85,68,37,30.18,30.03,8,0,8,0.08
2013-8-23,80,72,65,70,61,54,86,70,41,30.12,30.00,8,0,8,0.12
2013-8-24,78,68,62,57,51,40,77,57,27,30.32,30.12,0,0,0,0.12
2013-8-25,75,67,59,62,55,51,86,68,45,30.38,30.29,0,0,0,0.12
2013-8-26,78,67,57,63,56,52,86,69,45,30.32,30.12,4,0,4,0.12
2013-8-27,84,73,63,69,63,58,88,73,50,30.15,30.00,4,0,4,0.12
2013-8-28,83,75,68,74,68,65,91,78,59,30.03,29.91,5,0,5,0.12
2013-8-29,83,76,70,74,68,60,91,77,53,30.03,29.91,5,0,5,0.12
2013-8-30,81,74,69,71,69,67,96,85,62,30.09,29.97,4,0,4,0.12
2013-8-31,84,73,68,75,69,66,96,90,72,29.97,29.91,10,0,10,0.12
2013-9-1,83,72,68,77,70,68,97,94,79,29.94,29.85,5,0,5,0.43
2013-9-2,82,74,67,77,71,66,97,92,78,29.94,29.85,4,0,4,0.12
2013-9-3,84,75,68,75,70,65,96,85,59,30.00,29.85,7,0,7,0.12
2013-9-4,79,70,61,68,64,60,95,82,56,30.12,30.00,5,0,5,0.12
2013-9-5,81,70,62,68,62,56,97,79,44,30.12,30.06,5,0,5,0.12
2013-9-6,75,68,63,64,60,54,94,78,58,30.21,30.12,4,0,4,0.12
2013-9-7,78,68,59,68,63,57,95,86,65,30.15,30.00,6,0,6,0.12
2013-9-8,81,72,64,74,68,63,97,87,64,30.03,29.94,5,0,5,0.12
2013-9-9,81,73,67,72,69,65,96,89,72,30.18,30.00,5,0,5,0.12
2013-9-10,84,74,67,75,70,66,97,87,63,30.24,30.18,5,0,5,0.12
2013-9-11,85,74,67,75,71,66,97,90,67,30.21,30.09,6,0,6,0.12
2013-9-12,84,75,68,76,71,68,97,89,71,30.09,29.85,5,0,5,0.12
2013-9-13,78,70,62,68,60,52,96,73,43,29.94,29.82,9,0,9,0.12
2013-9-14,70,61,53,60,54,50,93,77,53,30.15,29.94,6,0,6,0.12
2013-9-15,74,63,52,64,58,51,95,85,57,30.24,30.12,6,0,6,0.12
2013-9-16,79,68,60,70,62,58,97,83,57,30.21,30.09,6,0,6,0.12
2013-9-17,69,63,58,58,55,52,90,76,55,30.32,30.21,5,0,5,0.12
2013-9-18,69,61,56,60,55,52,91,80,61,30.32,30.18,3,0,4,0.12
2013-9-19,73,65,59,65,61,58,95,87,73,30.21,30.09,5,0,5,0.12
2013-9-20,79,68,64,71,66,63,97,93,74,30.09,29.97,4,0,4,0.16
2013-9-21,72,68,64,71,67,64,98,97,95,29.97,29.73,8,0,8,0.79
2013-9-22,72,64,56,64,59,55,98,86,55,29.94,29.76,6,0,6,0.35
2013-9-23,68,60,55,59,54,51,96,82,59,30.09,29.94,4,0,4,0.00
2013-9-24,73,63,56,62,58,54,96,86,61,30.09,29.94,0,0,0,0.00
2013-9-25,65,60,56,63,59,55,97,96,93,29.97,29.88,0,0,0,0.08
2013-9-26,71,63,56,64,58,52,98,84,53,30.06,29.91,0,0,0,0.00
2013-9-27,70,61,52,62,55,51,97,83,54,30.18,30.06,0,0,0,0.00
2013-9-28,67,59,52,60,54,51,97,84,62,30.27,30.18,0,0,0,0.00
2013-9-29,68,60,53,59,55,50,96,85,65,30.18,30.03,0,0,0,0.00
2013-9-30,72,61,51,61,55,50,97,83,51,30.09,30.00,0,0,0,0.00
2013-10-1,77,65,55,66,59,54,97,83,51,30.12,30.03,0,0,0,0.00
2013-10-2,79,66,56,68,60,56,97,84,51,30.15,30.06,0,0,0,0.00
2013-10-3,80,68,59,69,62,58,97,85,53,30.15,30.06,2,0,2,0.00
2013-10-4,81,68,58,70,63,58,97,85,50,30.15,30.09,0,0,0,0.00
2013-10-5,82,70,60,72,65,60,97,85,52,30.15,30.06,0,0,0,0.00
2013-10-6,80,74,66,70,65,62,95,77,57,30.06,29.94,0,0,0,0.00
2013-10-7,71,67,57,70,64,54,97,90,75,30.03,29.82,8,0,8,0.55
2013-10-8,63,58,52,54,48,46,85,69,54,30.21,30.03,5,0,5,0.00
2013-10-9,66,58,53,52,48,46,81,69,54,30.21,30.12,9,0,9,0.00
2013-10-10,68,60,53,63,56,48,93,87,77,30.12,29.94,6,0,6,0.00
2013-10-11,71,66,61,65,62,59,96,88,70,29.97,29.91,10,0,10,0.00
2013-10-12,69,65,60,64,62,58,95,90,80,30.12,29.97,3,0,3,0.00
2013-10-13,67,63,61,64,62,60,97,95,89,30.24,30.09,5,0,5,0.00
2013-10-14,66,61,59,62,59,57,97,93,80,30.24,30.18,6,0,6,0.00
2013-10-15,68,61,54,59,55,52,97,84,57,30.21,30.06,6,0,6,0.00
2013-10-16,70,62,53,63,58,52,95,87,68,30.09,29.94,6,0,6,0.00
2013-10-17,67,63,59,65,62,58,98,96,93,29.97,29.82,4,0,4,0.08
2013-10-18,66,58,50,62,53,48,98,86,56,30.03,29.88,3,0,4,0.00
2013-10-19,61,56,52,60,55,51,98,96,94,29.97,29.82,4,0,4,0.00
2013-10-20,61,51,43,52,43,38,98,75,43,30.09,29.91,6,0,6,0.04
2013-10-21,66,51,38,52,45,36,95,81,51,30.12,29.97,6,0,6,0.00
2013-10-22,66,58,53,59,54,50,96,88,66,29.97,29.79,5,0,5,0.00
2013-10-23,62,54,43,55,43,28,97,70,38,30.00,29.70,13,1,13,0.00
2013-10-24,55,44,33,37,32,28,86,64,45,30.15,30.00,8,0,8,0.00
2013-10-25,50,41,33,36,30,25,87,67,43,30.32,30.15,11,0,11,0.00
2013-10-26,56,42,28,36,30,24,85,64,39,30.32,30.03,8,0,8,0.00
2013-10-27,66,52,37,46,40,34,87,66,40,30.09,30.00,10,0,10,0.00
2013-10-28,67,54,44,56,49,41,94,82,60,30.24,30.09,5,0,5,0.00
2013-10-29,69,58,50,58,52,48,96,82,54,30.29,30.21,5,0,5,0.00
2013-10-30,74,62,53,61,56,52,96,83,53,30.27,30.12,6,0,6,0.00
2013-10-31,68,64,57,62,57,54,92,81,65,30.15,29.85,8,0,8,0.00
2013-11-1,69,64,55,64,61,54,97,88,73,29.85,29.67,12,1,12,0.24
2013-11-2,68,57,46,58,47,36,98,74,37,29.97,29.70,11,1,11,0.00
2013-11-3,58,47,36,42,36,31,90,68,40,30.32,29.97,9,0,9,0.00
2013-11-4,53,45,38,35,30,26,78,57,44,30.50,30.32,9,1,9,0.00
2013-11-5,56,47,37,47,35,25,90,65,52,30.53,30.38,5,0,5,0.00
2013-11-6,68,56,49,52,48,46,91,78,51,30.38,30.09,6,0,6,0.00
2013-11-7,63,51,41,59,43,29,96,77,45,30.12,29.94,12,0,12,0.00
2013-11-8,54,42,31,36,28,22,86,59,36,30.27,30.12,11,0,11,0.00
2013-11-9,56,42,30,34,28,25,84,60,37,30.32,30.15,6,0,6,0.00
2013-11-10,70,51,34,42,32,23,85,52,27,30.24,30.06,12,1,12,0.00
2013-11-11,59,45,30,32,28,21,76,53,32,30.29,30.09,6,0,6,0.00
2013-11-12,58,41,29,39,27,13,81,60,45,30.41,30.00,9,1,9,0.00
2013-11-13,46,34,24,21,17,12,73,52,32,30.47,30.38,9,0,9,0.00
2013-11-14,58,38,23,28,21,17,78,54,24,30.41,30.27,8,1,8,0.00
2013-11-15,58,44,28,46,32,20,90,65,39,30.29,30.15,6,0,6,0.00
2013-11-16,58,53,48,56,51,46,97,93,87,30.24,30.18,3,0,3,0.04
2013-11-17,63,58,54,61,57,53,98,96,93,30.18,29.85,4,0,4,0.12
2013-11-18,70,61,50,64,47,26,98,67,34,30.00,29.82,9,1,9,0.12
2013-11-19,54,47,40,29,25,21,49,41,36,30.27,29.97,8,1,8,0.00
2013-11-20,50,42,35,29,24,21,56,49,42,30.41,30.27,10,1,10,0.00
2013-11-21,54,47,42,42,36,25,75,65,51,30.47,30.35,8,0,8,0.00
2013-11-22,62,55,48,57,50,42,95,84,74,30.35,30.06,8,0,8,0.00
2013-11-23,59,52,38,56,39,16,98,65,38,30.18,30.06,10,1,10,0.00
2013-11-24,38,31,24,16,7,-9,45,36,15,30.47,30.18,13,1,13,0.00
2013-11-25,38,30,19,15,11,5,64,46,31,30.50,30.29,6,0,6,0.00
2013-11-26,43,36,32,42,31,14,98,85,41,30.29,29.59,9,1,9,2.09
2013-11-27,44,37,27,44,28,10,98,71,48,30.15,29.53,17,2,17,0.83
2013-11-28,43,30,21,21,15,9,70,54,39,30.41,30.12,6,0,6,0.24
2013-11-29,49,35,22,30,21,17,80,59,38,30.56,30.38,8,1,8,0.24
2013-11-30,45,34,27,24,19,16,69,55,41,30.59,30.32,8,1,8,0.24
2013-12-1,67,34,22,48,23,18,81,67,38,30.32,29.97,6,0,6,0.24
2013-12-2,57,42,27,41,31,23,84,68,45,29.97,29.79,5,0,5,0.24
2013-12-3,58,47,34,49,41,31,88,80,66,29.97,29.82,6,0,6,0.24
2013-12-4,58,54,49,57,52,47,98,96,84,30.06,29.94,0,0,0,0.24
2013-12-5,65,62,58,64,61,57,98,98,98,30.09,29.97,8,0,8,0.24
2013-12-6,76,69,64,66,64,60,98,84,62,30.03,29.91,14,4,14,0.24
2013-12-7,64,50,42,61,42,32,97,76,58,30.38,30.00,11,3,11,0.28
2013-12-8,42,34,31,34,30,28,97,86,67,30.38,30.21,10,1,10,0.24
2013-12-9,42,37,32,41,36,32,98,98,97,30.21,30.00,4,0,4,0.24
2013-12-10,52,40,28,50,36,19,98,85,54,30.27,29.91,13,1,13,0.24
2013-12-11,49,34,22,29,24,20,88,69,40,30.38,30.24,8,1,8,0.24
2013-12-12,45,35,26,25,18,10,81,52,29,30.35,30.24,9,1,9,0.24
2013-12-13,50,34,22,27,20,14,79,58,36,30.32,30.21,8,0,8,0.24
2013-12-14,38,36,35,35,32,25,97,83,61,30.24,29.76,8,1,8,0.67
2013-12-15,50,40,30,43,32,23,98,76,49,30.03,29.70,13,1,13,0.24
2013-12-16,56,39,28,36,29,23,86,69,42,30.12,30.03,8,0,8,0.24
2013-12-17,62,44,30,39,32,26,90,65,38,30.06,29.85,15,2,15,0.24
2013-12-18,49,38,29,26,19,14,62,45,27,30.24,30.03,11,1,11,0.24
2013-12-19,63,42,25,32,23,17,77,51,26,30.27,30.15,10,1,10,0.24
2013-12-20,63,49,36,45,35,23,83,59,41,30.18,30.09,11,1,11,0.24
2013-12-21,68,57,43,63,52,40,95,86,75,30.12,29.97,11,2,11,0.24
2013-12-22,70,64,60,67,62,59,97,93,88,30.06,29.94,13,2,13,1.06
2013-12-23,63,56,40,62,54,32,98,92,73,30.15,29.97,10,1,10,0.71
2013-12-24,45,36,27,32,22,10,76,57,43,30.41,30.12,9,1,10,0.31
2013-12-25,38,28,19,16,12,9,73,52,33,30.47,30.29,8,1,8,0.24
2013-12-26,51,32,20,28,20,12,78,62,40,30.32,30.18,7,0,7,0.24
2013-12-27,52,34,23,28,21,18,81,61,33,30.41,30.29,6,0,6,0.24
2013-12-28,54,38,24,39,27,18,91,68,38,30.35,30.12,5,0,6,0.24
2013-12-29,57,45,40,52,42,36,97,88,67,30.12,29.70,10,1,10,0.75
2013-12-30,50,41,32,44,35,31,96,81,62,30.09,29.91,6,0,6,0.24
2013-12-31,50,39,30,35,27,18,91,66,38,30.29,30.06,13,1,13,0.24
2014-1-1,50,36,27,30,25,22,83,67,40,30.32,30.09,8,0,8,0.24
2014-1-2,40,36,32,38,32,25,97,87,74,30.09,29.62,13,1,13,0.28